sensor_id;sensor_type;location;lat;lon;timestamp;pressure;altitude;pressure_sealevel;temperature;humidity
71791;BME280;59638;52.126;5.434;2022-10-31T00:00:06;102239.47;;;10.46;100.00
71791;BME280;59638;52.126;5.434;2022-10-31T00:02:33;102238.94;;;10.41;100.00
71791;BME280;59638;52.126;5.434;2022-10-31T00:04:59;102237.44;;;10.37;100.00
71791;BME280;59638;52.126;5.434;2022-10-31T00:07:25;102233.44;;;10.31;100.00
71791;BME280;59638;52.126;5.434;2022-10-31T00:09:52;102239.44;;;10.33;100.00
71791;BME280;59638;52.126;5.434;2022-10-31T00:12:18;102241.13;;;10.34;100.00
71791;BME280;59638;52.126;5.434;2022-10-31T00:14:44;102241.88;;;10.36;100.00
71791;BME280;59638;52.126;5.434;2022-10-31T00:17:10;102237.78;;;10.45;100.00
71791;BME280;59638;52.126;5.434;2022-10-31T00:19:37;102247.50;;;10.44;100.00
71791;BME280;59638;52.126;5.434;2022-10-31T00:22:03;102242.63;;;10.38;100.00
71791;BME280;59638;52.126;5.434;2022-10-31T00:24:30;102247.25;;;10.34;100.00
71791;BME280;59638;52.126;5.434;2022-10-31T00:26:56;102240.94;;;10.37;100.00
71791;BME280;59638;52.126;5.434;2022-10-31T00:29:22;102254.88;;;10.39;100.00
71791;BME280;59638;52.126;5.434;2022-10-31T00:31:49;102243.88;;;10.32;100.00
71791;BME280;59638;52.126;5.434;2022-10-31T00:34:15;102260.34;;;10.36;100.00
71791;BME280;59638;52.126;5.434;2022-10-31T00:36:42;102251.81;;;10.32;100.00
71791;BME280;59638;52.126;5.434;2022-10-31T00:39:08;102253.16;;;10.25;100.00
71791;BME280;59638;52.126;5.434;2022-10-31T00:41:34;102238.22;;;10.39;100.00
71791;BME280;59638;52.126;5.434;2022-10-31T00:44:01;102258.25;;;10.41;100.00
71791;BME280;59638;52.126;5.434;2022-10-31T00:46:27;102254.34;;;10.34;100.00
71791;BME280;59638;52.126;5.434;2022-10-31T00:48:54;102244.09;;;10.42;100.00
71791;BME280;59638;52.126;5.434;2022-10-31T00:51:20;102252.97;;;10.41;100.00
71791;BME280;59638;52.126;5.434;2022-10-31T00:53:46;102247.28;;;10.47;100.00
71791;BME280;59638;52.126;5.434;2022-10-31T00:56:13;102254.91;;;10.52;100.00
71791;BME280;59638;52.126;5.434;2022-10-31T00:58:39;102254.19;;;10.50;100.00
71791;BME280;59638;52.126;5.434;2022-10-31T01:01:05;102258.41;;;10.52;100.00
71791;BME280;59638;52.126;5.434;2022-10-31T01:03:33;102249.09;;;10.47;100.00
71791;BME280;59638;52.126;5.434;2022-10-31T01:06:02;102255.72;;;10.40;100.00
71791;BME280;59638;52.126;5.434;2022-10-31T01:08:29;102248.00;;;10.37;100.00
71791;BME280;59638;52.126;5.434;2022-10-31T01:13:29;102242.63;;;10.38;100.00
71791;BME280;59638;52.126;5.434;2022-10-31T01:15:56;102241.34;;;10.31;100.00
71791;BME280;59638;52.126;5.434;2022-10-31T01:18:23;102243.81;;;10.20;100.00
71791;BME280;59638;52.126;5.434;2022-10-31T01:21:00;102247.81;;;10.13;100.00
71791;BME280;59638;52.126;5.434;2022-10-31T01:23:27;102242.72;;;10.09;100.00
71791;BME280;59638;52.126;5.434;2022-10-31T01:26:24;102241.25;;;10.05;100.00
71791;BME280;59638;52.126;5.434;2022-10-31T01:28:59;102232.56;;;10.03;100.00
71791;BME280;59638;52.126;5.434;2022-10-31T01:31:28;102219.75;;;10.12;100.00
71791;BME280;59638;52.126;5.434;2022-10-31T01:33:55;102217.84;;;10.14;100.00
71791;BME280;59638;52.126;5.434;2022-10-31T01:36:24;102220.75;;;10.09;100.00
71791;BME280;59638;52.126;5.434;2022-10-31T01:38:53;102212.50;;;10.01;100.00
71791;BME280;59638;52.126;5.434;2022-10-31T01:41:23;102223.56;;;9.93;100.00
71791;BME280;59638;52.126;5.434;2022-10-31T01:43:56;102226.81;;;9.84;100.00
71791;BME280;59638;52.126;5.434;2022-10-31T01:46:35;102220.44;;;9.74;100.00
71791;BME280;59638;52.126;5.434;2022-10-31T01:49:09;102227.97;;;9.66;100.00
71791;BME280;59638;52.126;5.434;2022-10-31T01:51:42;102225.75;;;9.60;100.00
71791;BME280;59638;52.126;5.434;2022-10-31T01:54:12;102221.41;;;9.59;100.00
71791;BME280;59638;52.126;5.434;2022-10-31T01:56:42;102216.31;;;9.56;100.00
71791;BME280;59638;52.126;5.434;2022-10-31T01:59:12;102217.38;;;9.53;100.00
71791;BME280;59638;52.126;5.434;2022-10-31T02:01:42;102212.50;;;9.47;100.00
71791;BME280;59638;52.126;5.434;2022-10-31T02:04:09;102217.69;;;9.34;100.00
71791;BME280;59638;52.126;5.434;2022-10-31T02:09:10;102219.66;;;9.16;100.00
71791;BME280;59638;52.126;5.434;2022-10-31T02:11:38;102217.81;;;9.18;100.00
71791;BME280;59638;52.126;5.434;2022-10-31T02:14:05;102219.03;;;9.13;100.00
71791;BME280;59638;52.126;5.434;2022-10-31T02:16:32;102223.81;;;9.06;100.00
71791;BME280;59638;52.126;5.434;2022-10-31T02:18:58;102217.03;;;9.02;100.00
71791;BME280;59638;52.126;5.434;2022-10-31T02:21:52;102216.38;;;8.98;100.00
71791;BME280;59638;52.126;5.434;2022-10-31T02:29:46;102221.06;;;8.79;100.00
71791;BME280;59638;52.126;5.434;2022-10-31T02:32:27;102224.81;;;8.75;100.00
71791;BME280;59638;52.126;5.434;2022-10-31T02:35:06;102226.88;;;8.70;100.00
71791;BME280;59638;52.126;5.434;2022-10-31T02:40:34;102225.38;;;8.66;100.00
71791;BME280;59638;52.126;5.434;2022-10-31T02:43:19;102228.09;;;8.64;100.00
71791;BME280;59638;52.126;5.434;2022-10-31T02:45:57;102231.00;;;8.60;100.00
71791;BME280;59638;52.126;5.434;2022-10-31T02:48:28;102232.88;;;8.58;100.00
71791;BME280;59638;52.126;5.434;2022-10-31T02:51:02;102237.00;;;8.48;100.00
71791;BME280;59638;52.126;5.434;2022-10-31T02:53:37;102229.63;;;8.38;100.00
71791;BME280;59638;52.126;5.434;2022-10-31T02:56:16;102232.44;;;8.35;100.00
71791;BME280;59638;52.126;5.434;2022-10-31T02:58:53;102227.34;;;8.32;100.00
71791;BME280;59638;52.126;5.434;2022-10-31T03:01:33;102227.50;;;8.29;100.00
71791;BME280;59638;52.126;5.434;2022-10-31T03:06:41;102225.41;;;8.20;100.00
71791;BME280;59638;52.126;5.434;2022-10-31T03:11:56;102226.84;;;8.10;100.00
71791;BME280;59638;52.126;5.434;2022-10-31T03:14:31;102224.31;;;8.08;100.00
71791;BME280;59638;52.126;5.434;2022-10-31T03:17:02;102214.66;;;8.09;100.00
71791;BME280;59638;52.126;5.434;2022-10-31T03:19:35;102238.66;;;8.03;100.00
71791;BME280;59638;52.126;5.434;2022-10-31T03:22:17;102234.69;;;7.96;100.00
71791;BME280;59638;52.126;5.434;2022-10-31T03:24:45;102233.34;;;7.88;100.00
71791;BME280;59638;52.126;5.434;2022-10-31T03:27:16;102238.00;;;7.83;100.00
71791;BME280;59638;52.126;5.434;2022-10-31T03:29:47;102237.41;;;7.78;100.00
71791;BME280;59638;52.126;5.434;2022-10-31T03:32:22;102239.47;;;7.73;100.00
71791;BME280;59638;52.126;5.434;2022-10-31T03:34:53;102238.53;;;7.74;100.00
71791;BME280;59638;52.126;5.434;2022-10-31T03:37:22;102236.75;;;7.75;100.00
71791;BME280;59638;52.126;5.434;2022-10-31T03:39:51;102238.44;;;7.76;100.00
71791;BME280;59638;52.126;5.434;2022-10-31T03:42:23;102244.53;;;7.76;100.00
71791;BME280;59638;52.126;5.434;2022-10-31T03:44:53;102234.72;;;7.80;100.00
71791;BME280;59638;52.126;5.434;2022-10-31T03:47:22;102238.25;;;7.79;100.00
71791;BME280;59638;52.126;5.434;2022-10-31T03:49:49;102234.63;;;7.81;100.00
71791;BME280;59638;52.126;5.434;2022-10-31T03:55:10;102234.53;;;7.67;100.00
71791;BME280;59638;52.126;5.434;2022-10-31T03:57:52;102228.78;;;7.60;100.00
71791;BME280;59638;52.126;5.434;2022-10-31T04:00:22;102229.63;;;7.61;100.00
71791;BME280;59638;52.126;5.434;2022-10-31T04:02:58;102237.19;;;7.67;100.00
71791;BME280;59638;52.126;5.434;2022-10-31T04:05:26;102228.34;;;7.68;100.00
71791;BME280;59638;52.126;5.434;2022-10-31T04:07:55;102232.84;;;7.66;100.00
71791;BME280;59638;52.126;5.434;2022-10-31T04:10:24;102225.13;;;7.63;100.00
71791;BME280;59638;52.126;5.434;2022-10-31T04:13:06;102232.41;;;7.58;100.00
71791;BME280;59638;52.126;5.434;2022-10-31T04:15:35;102237.94;;;7.53;100.00
71791;BME280;59638;52.126;5.434;2022-10-31T04:18:03;102245.22;;;7.48;100.00
71791;BME280;59638;52.126;5.434;2022-10-31T04:20:36;102245.44;;;7.44;100.00
71791;BME280;59638;52.126;5.434;2022-10-31T04:23:03;102246.72;;;7.36;100.00
71791;BME280;59638;52.126;5.434;2022-10-31T04:25:30;102250.59;;;7.29;100.00
71791;BME280;59638;52.126;5.434;2022-10-31T04:27:56;102246.53;;;7.24;100.00
71791;BME280;59638;52.126;5.434;2022-10-31T04:30:23;102246.59;;;7.22;100.00
71791;BME280;59638;52.126;5.434;2022-10-31T04:32:50;102241.28;;;7.24;100.00
71791;BME280;59638;52.126;5.434;2022-10-31T04:35:16;102243.66;;;7.28;100.00
71791;BME280;59638;52.126;5.434;2022-10-31T04:37:42;102244.31;;;7.32;100.00
71791;BME280;59638;52.126;5.434;2022-10-31T04:40:09;102241.78;;;7.30;100.00
71791;BME280;59638;52.126;5.434;2022-10-31T04:42:36;102237.47;;;7.29;100.00
71791;BME280;59638;52.126;5.434;2022-10-31T04:45:02;102231.19;;;7.32;100.00
71791;BME280;59638;52.126;5.434;2022-10-31T04:47:31;102237.72;;;7.25;100.00
71791;BME280;59638;52.126;5.434;2022-10-31T04:49:58;102227.38;;;7.22;100.00
71791;BME280;59638;52.126;5.434;2022-10-31T04:52:24;102235.34;;;7.20;100.00
71791;BME280;59638;52.126;5.434;2022-10-31T04:54:51;102235.34;;;7.20;100.00
71791;BME280;59638;52.126;5.434;2022-10-31T04:57:17;102231.94;;;7.18;100.00
71791;BME280;59638;52.126;5.434;2022-10-31T04:59:44;102228.56;;;7.16;100.00
71791;BME280;59638;52.126;5.434;2022-10-31T05:02:10;102223.47;;;7.13;100.00
71791;BME280;59638;52.126;5.434;2022-10-31T05:04:36;102233.19;;;7.11;100.00
71791;BME280;59638;52.126;5.434;2022-10-31T05:07:03;102227.19;;;7.09;100.00
71791;BME280;59638;52.126;5.434;2022-10-31T05:09:29;102225.50;;;7.08;100.00
71791;BME280;59638;52.126;5.434;2022-10-31T05:11:55;102224.56;;;7.09;100.00
71791;BME280;59638;52.126;5.434;2022-10-31T05:14:22;102226.25;;;7.10;100.00
71791;BME280;59638;52.126;5.434;2022-10-31T05:16:48;102227.84;;;7.13;100.00
71791;BME280;59638;52.126;5.434;2022-10-31T05:19:15;102222.44;;;7.16;100.00
71791;BME280;59638;52.126;5.434;2022-10-31T05:21:41;102221.75;;;7.12;100.00
71791;BME280;59638;52.126;5.434;2022-10-31T05:24:07;102223.63;;;7.10;100.00
71791;BME280;59638;52.126;5.434;2022-10-31T05:26:34;102221.94;;;7.09;100.00
71791;BME280;59638;52.126;5.434;2022-10-31T05:29:00;102226.44;;;7.07;100.00
71791;BME280;59638;52.126;5.434;2022-10-31T05:31:27;102221.41;;;7.02;100.00
71791;BME280;59638;52.126;5.434;2022-10-31T05:33:53;102223.34;;;6.99;100.00
71791;BME280;59638;52.126;5.434;2022-10-31T05:36:19;102222.56;;;6.97;100.00
71791;BME280;59638;52.126;5.434;2022-10-31T05:38:45;102213.94;;;6.95;100.00
71791;BME280;59638;52.126;5.434;2022-10-31T05:41:12;102212.47;;;6.89;100.00
71791;BME280;59638;52.126;5.434;2022-10-31T05:43:38;102218.72;;;6.87;100.00
71791;BME280;59638;52.126;5.434;2022-10-31T05:46:04;102215.41;;;6.83;100.00
71791;BME280;59638;52.126;5.434;2022-10-31T05:48:31;102212.03;;;6.81;100.00
71791;BME280;59638;52.126;5.434;2022-10-31T05:50:57;102221.84;;;6.77;100.00
71791;BME280;59638;52.126;5.434;2022-10-31T05:53:23;102218.44;;;6.75;100.00
71791;BME280;59638;52.126;5.434;2022-10-31T05:55:50;102216.75;;;6.74;100.00
71791;BME280;59638;52.126;5.434;2022-10-31T05:58:16;102212.41;;;6.73;100.00
71791;BME280;59638;52.126;5.434;2022-10-31T06:00:43;102210.72;;;6.72;100.00
71791;BME280;59638;52.126;5.434;2022-10-31T06:03:09;102202.69;;;6.75;100.00
71791;BME280;59638;52.126;5.434;2022-10-31T06:05:36;102204.41;;;6.76;100.00
71791;BME280;59638;52.126;5.434;2022-10-31T06:08:02;102208.94;;;6.73;100.00
71791;BME280;59638;52.126;5.434;2022-10-31T06:10:29;102203.16;;;6.66;100.00
71791;BME280;59638;52.126;5.434;2022-10-31T06:12:56;102206.72;;;6.65;100.00
71791;BME280;59638;52.126;5.434;2022-10-31T06:15:22;102201.66;;;6.62;100.00
71791;BME280;59638;52.126;5.434;2022-10-31T06:18:01;102205.19;;;6.61;100.00
71791;BME280;59638;52.126;5.434;2022-10-31T06:20:29;102204.19;;;6.64;100.00
71791;BME280;59638;52.126;5.434;2022-10-31T06:22:56;102204.88;;;6.67;100.00
71791;BME280;59638;52.126;5.434;2022-10-31T06:25:22;102200.41;;;6.69;100.00
71791;BME280;59638;52.126;5.434;2022-10-31T06:27:49;102201.00;;;6.74;100.00
71791;BME280;59638;52.126;5.434;2022-10-31T06:30:15;102203.38;;;6.79;100.00
71791;BME280;59638;52.126;5.434;2022-10-31T06:32:42;102205.00;;;6.81;100.00
71791;BME280;59638;52.126;5.434;2022-10-31T06:35:08;102204.06;;;6.82;100.00
71791;BME280;59638;52.126;5.434;2022-10-31T06:37:34;102212.31;;;6.92;100.00
71791;BME280;59638;52.126;5.434;2022-10-31T06:40:01;102203.50;;;6.93;100.00
71791;BME280;59638;52.126;5.434;2022-10-31T06:42:27;102207.75;;;6.96;100.00
71791;BME280;59638;52.126;5.434;2022-10-31T06:44:55;102213.53;;;7.02;100.00
71791;BME280;59638;52.126;5.434;2022-10-31T06:47:22;102208.06;;;7.07;100.00
71791;BME280;59638;52.126;5.434;2022-10-31T06:49:48;102210.69;;;7.07;100.00
71791;BME280;59638;52.126;5.434;2022-10-31T06:52:14;102212.97;;;7.13;100.00
71791;BME280;59638;52.126;5.434;2022-10-31T06:54:41;102212.28;;;7.25;100.00
71791;BME280;59638;52.126;5.434;2022-10-31T06:57:07;102216.28;;;7.32;100.00
71791;BME280;59638;52.126;5.434;2022-10-31T06:59:34;102217.06;;;7.34;100.00
71791;BME280;59638;52.126;5.434;2022-10-31T07:02:00;102217.06;;;7.34;100.00
71791;BME280;59638;52.126;5.434;2022-10-31T07:04:27;102215.03;;;7.40;100.00
71791;BME280;59638;52.126;5.434;2022-10-31T07:06:53;102220.72;;;7.48;100.00
71791;BME280;59638;52.126;5.434;2022-10-31T07:09:19;102211.66;;;7.53;100.00
71791;BME280;59638;52.126;5.434;2022-10-31T07:11:46;102217.94;;;7.67;100.00
71791;BME280;59638;52.126;5.434;2022-10-31T07:14:12;102218.16;;;7.78;100.00
71791;BME280;59638;52.126;5.434;2022-10-31T07:16:38;102220.28;;;7.87;100.00
71791;BME280;59638;52.126;5.434;2022-10-31T07:19:05;102216.03;;;8.00;100.00
71791;BME280;59638;52.126;5.434;2022-10-31T07:21:31;102212.63;;;8.14;100.00
71791;BME280;59638;52.126;5.434;2022-10-31T07:23:57;102212.25;;;8.20;100.00
71791;BME280;59638;52.126;5.434;2022-10-31T07:26:24;102209.19;;;8.28;100.00
71791;BME280;59638;52.126;5.434;2022-10-31T07:28:50;102210.28;;;8.39;100.00
71791;BME280;59638;52.126;5.434;2022-10-31T07:31:16;102215.69;;;8.52;100.00
71791;BME280;59638;52.126;5.434;2022-10-31T07:33:43;102214.66;;;8.69;100.00
71791;BME280;59638;52.126;5.434;2022-10-31T07:36:09;102219.19;;;8.81;100.00
71791;BME280;59638;52.126;5.434;2022-10-31T07:38:35;102225.31;;;8.82;100.00
71791;BME280;59638;52.126;5.434;2022-10-31T07:41:02;102223.50;;;8.68;100.00
71791;BME280;59638;52.126;5.434;2022-10-31T07:43:28;102224.06;;;8.73;100.00
71791;BME280;59638;52.126;5.434;2022-10-31T07:45:54;102223.16;;;8.88;100.00
71791;BME280;59638;52.126;5.434;2022-10-31T07:48:21;102224.00;;;9.03;100.00
71791;BME280;59638;52.126;5.434;2022-10-31T07:50:47;102226.53;;;9.19;100.00
71791;BME280;59638;52.126;5.434;2022-10-31T07:53:14;102230.66;;;9.23;100.00
71791;BME280;59638;52.126;5.434;2022-10-31T07:55:41;102227.28;;;9.21;100.00
71791;BME280;59638;52.126;5.434;2022-10-31T07:58:15;102232.81;;;9.31;100.00
71791;BME280;59638;52.126;5.434;2022-10-31T08:00:43;102225.38;;;9.51;100.00
71791;BME280;59638;52.126;5.434;2022-10-31T08:03:15;102220.75;;;9.55;100.00
71791;BME280;59638;52.126;5.434;2022-10-31T08:05:42;102231.28;;;9.55;100.00
71791;BME280;59638;52.126;5.434;2022-10-31T08:08:11;102236.19;;;9.61;100.00
71791;BME280;59638;52.126;5.434;2022-10-31T08:10:38;102234.56;;;9.73;100.00
71791;BME280;59638;52.126;5.434;2022-10-31T08:13:07;102237.81;;;9.91;100.00
71791;BME280;59638;52.126;5.434;2022-10-31T08:15:34;102244.50;;;10.36;100.00
71791;BME280;59638;52.126;5.434;2022-10-31T08:18:03;102237.19;;;10.67;100.00
71791;BME280;59638;52.126;5.434;2022-10-31T08:20:30;102238.03;;;10.80;100.00
71791;BME280;59638;52.126;5.434;2022-10-31T08:22:58;102246.09;;;10.91;100.00
71791;BME280;59638;52.126;5.434;2022-10-31T08:25:25;102240.13;;;11.26;100.00
71791;BME280;59638;52.126;5.434;2022-10-31T08:27:55;102229.75;;;11.85;100.00
71791;BME280;59638;52.126;5.434;2022-10-31T08:30:24;102230.47;;;12.46;100.00
71791;BME280;59638;52.126;5.434;2022-10-31T08:33:01;102225.03;;;12.83;100.00
71791;BME280;59638;52.126;5.434;2022-10-31T08:35:28;102222.66;;;13.02;100.00
71791;BME280;59638;52.126;5.434;2022-10-31T08:37:55;102215.88;;;12.87;100.00
71791;BME280;59638;52.126;5.434;2022-10-31T08:40:23;102226.56;;;12.74;100.00
71791;BME280;59638;52.126;5.434;2022-10-31T08:43:01;102220.44;;;12.62;100.00
71791;BME280;59638;52.126;5.434;2022-10-31T08:45:28;102224.47;;;12.44;100.00
71791;BME280;59638;52.126;5.434;2022-10-31T08:48:03;102226.75;;;12.13;100.00
71791;BME280;59638;52.126;5.434;2022-10-31T08:50:32;102220.47;;;12.03;100.00
71791;BME280;59638;52.126;5.434;2022-10-31T08:53:02;102216.16;;;12.13;100.00
71791;BME280;59638;52.126;5.434;2022-10-31T08:55:33;102210.97;;;12.36;100.00
71791;BME280;59638;52.126;5.434;2022-10-31T08:58:01;102199.13;;;12.86;99.93
71791;BME280;59638;52.126;5.434;2022-10-31T09:00:28;102194.69;;;13.20;98.72
71791;BME280;59638;52.126;5.434;2022-10-31T09:03:00;102204.06;;;13.13;98.15
71791;BME280;59638;52.126;5.434;2022-10-31T09:05:27;102206.25;;;13.19;97.95
71791;BME280;59638;52.126;5.434;2022-10-31T09:07:57;102198.31;;;13.30;97.36
71791;BME280;59638;52.126;5.434;2022-10-31T09:10:25;102191.47;;;13.71;96.67
71791;BME280;59638;52.126;5.434;2022-10-31T09:12:56;102199.28;;;14.48;94.70
71791;BME280;59638;52.126;5.434;2022-10-31T09:15:24;102186.41;;;15.55;92.47
71791;BME280;59638;52.126;5.434;2022-10-31T09:17:50;102179.13;;;16.73;88.50
71791;BME280;59638;52.126;5.434;2022-10-31T09:20:17;102172.81;;;17.56;84.37
71791;BME280;59638;52.126;5.434;2022-10-31T09:22:44;102165.94;;;18.07;81.66
71791;BME280;59638;52.126;5.434;2022-10-31T09:25:10;102158.53;;;17.48;81.38
71791;BME280;59638;52.126;5.434;2022-10-31T09:27:37;102158.69;;;16.44;84.64
71791;BME280;59638;52.126;5.434;2022-10-31T09:30:04;102155.94;;;15.88;85.97
71791;BME280;59638;52.126;5.434;2022-10-31T09:32:30;102166.97;;;15.64;87.64
71791;BME280;59638;52.126;5.434;2022-10-31T09:34:57;102159.25;;;15.61;88.38
71791;BME280;59638;52.126;5.434;2022-10-31T09:37:23;102153.66;;;15.64;88.37
71791;BME280;59638;52.126;5.434;2022-10-31T09:39:49;102143.53;;;15.48;89.03
71791;BME280;59638;52.126;5.434;2022-10-31T09:42:44;102142.97;;;15.44;89.17
71791;BME280;59638;52.126;5.434;2022-10-31T09:48:11;102149.31;;;15.53;89.52
71791;BME280;59638;52.126;5.434;2022-10-31T09:50:48;102150.06;;;15.65;88.91
71791;BME280;59638;52.126;5.434;2022-10-31T09:53:24;102146.34;;;15.56;89.45
71791;BME280;59638;52.126;5.434;2022-10-31T09:55:53;102155.72;;;15.50;89.51
71791;BME280;59638;52.126;5.434;2022-10-31T09:58:24;102144.69;;;15.45;90.27
71791;BME280;59638;52.126;5.434;2022-10-31T10:00:53;102143.28;;;15.61;90.01
71791;BME280;59638;52.126;5.434;2022-10-31T10:03:25;102136.38;;;16.45;89.17
71791;BME280;59638;52.126;5.434;2022-10-31T10:06:07;102140.38;;;16.78;85.97
71791;BME280;59638;52.126;5.434;2022-10-31T10:08:37;102131.66;;;16.76;86.35
71791;BME280;59638;52.126;5.434;2022-10-31T10:19:41;102124.22;;;17.07;83.05
71791;BME280;59638;52.126;5.434;2022-10-31T10:25:23;102129.16;;;16.09;86.58
71791;BME280;59638;52.126;5.434;2022-10-31T10:28:01;102125.69;;;15.79;87.17
71791;BME280;59638;52.126;5.434;2022-10-31T10:30:40;102116.84;;;15.69;87.56
71791;BME280;59638;52.126;5.434;2022-10-31T10:33:11;102112.59;;;15.57;88.22
71791;BME280;59638;52.126;5.434;2022-10-31T10:35:55;102109.91;;;15.37;88.77
71791;BME280;59638;52.126;5.434;2022-10-31T10:40:58;102102.75;;;15.38;89.16
71791;BME280;59638;52.126;5.434;2022-10-31T10:43:33;102099.00;;;15.40;89.51
71791;BME280;59638;52.126;5.434;2022-10-31T10:49:15;102091.16;;;15.58;89.68
71791;BME280;59638;52.126;5.434;2022-10-31T10:52:06;102076.63;;;15.72;89.67
71791;BME280;59638;52.126;5.434;2022-10-31T10:55:05;102062.59;;;15.70;88.60
71791;BME280;59638;52.126;5.434;2022-10-31T11:00:27;102055.03;;;15.94;87.52
71791;BME280;59638;52.126;5.434;2022-10-31T11:02:56;102050.34;;;16.16;87.18
71791;BME280;59638;52.126;5.434;2022-10-31T11:08:11;102037.31;;;16.03;85.12
71791;BME280;59638;52.126;5.434;2022-10-31T11:10:38;102030.38;;;15.92;86.71
71791;BME280;59638;52.126;5.434;2022-10-31T11:18:25;102004.84;;;15.90;86.41
71791;BME280;59638;52.126;5.434;2022-10-31T11:20:54;102005.09;;;15.96;87.49
71791;BME280;59638;52.126;5.434;2022-10-31T11:23:23;102008.56;;;16.44;85.87
71791;BME280;59638;52.126;5.434;2022-10-31T11:26:01;102016.06;;;17.13;84.20
71791;BME280;59638;52.126;5.434;2022-10-31T11:28:30;102007.19;;;16.95;82.87
71791;BME280;59638;52.126;5.434;2022-10-31T11:31:00;102013.97;;;16.62;83.80
71791;BME280;59638;52.126;5.434;2022-10-31T11:33:34;102012.78;;;16.46;84.51
71791;BME280;59638;52.126;5.434;2022-10-31T11:36:09;101998.53;;;16.38;85.62
71791;BME280;59638;52.126;5.434;2022-10-31T11:38:41;102002.72;;;16.40;85.53
71791;BME280;59638;52.126;5.434;2022-10-31T11:41:19;101995.00;;;16.37;85.35
71791;BME280;59638;52.126;5.434;2022-10-31T11:44:14;101987.00;;;16.37;85.39
71791;BME280;59638;52.126;5.434;2022-10-31T11:46:48;101986.22;;;16.27;85.82
71791;BME280;59638;52.126;5.434;2022-10-31T11:49:29;101982.88;;;16.25;86.54
71791;BME280;59638;52.126;5.434;2022-10-31T11:51:58;101978.91;;;16.29;86.61
71791;BME280;59638;52.126;5.434;2022-10-31T11:54:29;101980.00;;;16.36;85.93
71791;BME280;59638;52.126;5.434;2022-10-31T11:56:56;101961.56;;;16.25;86.19
71791;BME280;59638;52.126;5.434;2022-10-31T11:59:28;101942.19;;;16.23;86.08
71791;BME280;59638;52.126;5.434;2022-10-31T12:01:57;101931.84;;;16.20;85.84
71791;BME280;59638;52.126;5.434;2022-10-31T12:04:43;101931.03;;;16.19;86.54
71791;BME280;59638;52.126;5.434;2022-10-31T12:07:11;101915.06;;;16.10;86.16
71791;BME280;59638;52.126;5.434;2022-10-31T12:09:38;101928.34;;;15.92;86.41
71791;BME280;59638;52.126;5.434;2022-10-31T12:15:21;101921.94;;;15.75;88.45
71791;BME280;59638;52.126;5.434;2022-10-31T12:18:17;101916.50;;;15.67;88.25
71791;BME280;59638;52.126;5.434;2022-10-31T12:26:36;101886.31;;;15.86;88.39
71791;BME280;59638;52.126;5.434;2022-10-31T12:31:47;101874.31;;;16.27;87.11
71791;BME280;59638;52.126;5.434;2022-10-31T12:40:12;101841.75;;;16.69;85.59
71791;BME280;59638;52.126;5.434;2022-10-31T12:43:21;101850.47;;;16.71;85.35
71791;BME280;59638;52.126;5.434;2022-10-31T12:45:53;101854.69;;;16.64;85.24
71791;BME280;59638;52.126;5.434;2022-10-31T12:51:27;101831.41;;;16.66;85.61
71791;BME280;59638;52.126;5.434;2022-10-31T12:54:17;101814.84;;;16.72;85.45
71791;BME280;59638;52.126;5.434;2022-10-31T12:57:05;101820.84;;;16.74;85.67
71791;BME280;59638;52.126;5.434;2022-10-31T13:02:38;101813.41;;;16.68;86.13
71791;BME280;59638;52.126;5.434;2022-10-31T13:05:27;101815.09;;;16.69;85.85
71791;BME280;59638;52.126;5.434;2022-10-31T13:08:01;101811.75;;;16.67;85.77
71791;BME280;59638;52.126;5.434;2022-10-31T13:10:39;101800.50;;;16.73;85.91
71791;BME280;59638;52.126;5.434;2022-10-31T13:15:48;101796.28;;;16.70;85.61
71791;BME280;59638;52.126;5.434;2022-10-31T13:18:27;101795.22;;;16.63;86.26
71791;BME280;59638;52.126;5.434;2022-10-31T13:20:55;101769.31;;;16.55;86.89
71791;BME280;59638;52.126;5.434;2022-10-31T13:23:29;101761.09;;;16.49;86.89
71791;BME280;59638;52.126;5.434;2022-10-31T13:26:46;101756.38;;;16.43;87.46
71791;BME280;59638;52.126;5.434;2022-10-31T13:29:34;101753.06;;;16.41;88.00
71791;BME280;59638;52.126;5.434;2022-10-31T13:32:06;101747.78;;;16.49;87.85
71791;BME280;59638;52.126;5.434;2022-10-31T13:34:57;101745.03;;;16.58;88.10
71791;BME280;59638;52.126;5.434;2022-10-31T13:37:41;101738.19;;;16.74;87.91
71791;BME280;59638;52.126;5.434;2022-10-31T13:40:34;101734.00;;;16.97;87.12
71791;BME280;59638;52.126;5.434;2022-10-31T13:43:08;101721.91;;;17.11;86.98
71791;BME280;59638;52.126;5.434;2022-10-31T13:45:48;101718.34;;;17.36;86.45
71791;BME280;59638;52.126;5.434;2022-10-31T13:50:43;101707.88;;;17.43;85.75
71791;BME280;59638;52.126;5.434;2022-10-31T13:53:22;101697.53;;;17.40;85.75
71791;BME280;59638;52.126;5.434;2022-10-31T13:56:01;101698.16;;;17.34;85.55
71791;BME280;59638;52.126;5.434;2022-10-31T13:58:30;101690.44;;;17.23;85.61
71791;BME280;59638;52.126;5.434;2022-10-31T14:01:20;101693.06;;;17.15;85.66
71791;BME280;59638;52.126;5.434;2022-10-31T14:04:06;101691.03;;;17.08;86.04
71791;BME280;59638;52.126;5.434;2022-10-31T14:06:51;101686.00;;;16.97;86.35
71791;BME280;59638;52.126;5.434;2022-10-31T14:09:26;101684.09;;;16.90;86.26
71791;BME280;59638;52.126;5.434;2022-10-31T14:11:54;101678.28;;;16.86;86.39
71791;BME280;59638;52.126;5.434;2022-10-31T14:14:24;101685.59;;;16.84;86.45
71791;BME280;59638;52.126;5.434;2022-10-31T14:16:57;101676.41;;;16.78;86.54
71791;BME280;59638;52.126;5.434;2022-10-31T14:19:24;101665.38;;;16.73;86.91
71791;BME280;59638;52.126;5.434;2022-10-31T14:21:51;101660.25;;;16.62;87.36
71791;BME280;59638;52.126;5.434;2022-10-31T14:29:47;101648.34;;;16.48;87.82
71791;BME280;59638;52.126;5.434;2022-10-31T14:32:23;101641.66;;;16.44;87.97